Terminal Aerodrome Forecast
Issued by NWS

Home | Current Version | Previous Version | Text Only | Print | Product List | Glossary On
Versions: 1 2 3 4 5 6 7 8 9 10 11 12 13
000
FTUS42 TJSJ 311100
TAFJBQ
TAF
TJBQ 311133Z 3112/0112 13005KT P6SM VCSH FEW025 SCT050
      TEMPO 3112/3114 5SM SHRA SCT025 BKN040
     FM311430 07015KT P6SM SCT030 SCT050
     FM312230 11005KT P6SM SCT025
      AMD NOT SKED 0102/0111=

USA.gov is the U.S. government's official web portal to all federal, state and local government web resources and services.